Time;durP1;ratioP1;P1;durP2;ratioP2;P2;SDS_P1;SDS_P2;PMS_P1;PMS_P2;Temp;Humidity;BMP_temperature;BMP_pressure;BME280_temperature;BME280_humidity;BME280_pressure;Samples;Min_cycle;Max_cycle;Signal;HPM_P1;HPM_P2
2022/07/08 00:01:11;;;;;;;5.85;5.20;;;26.60;1.00;;;;;;5114564;27;20519;-58
2022/07/08 00:03:37;;;;;;;5.93;4.00;;;26.60;1.00;;;;;;5115161;28;20024;-58
2022/07/08 00:06:03;;;;;;;4.50;4.20;;;26.40;1.00;;;;;;5109716;28;20028;-58
2022/07/08 00:08:30;;;;;;;4.55;3.72;;;26.50;1.00;;;;;;5114918;28;20465;-57
2022/07/08 00:10:56;;;;;;;5.40;4.35;;;26.40;1.00;;;;;;5095810;28;20438;-58
2022/07/08 00:13:22;;;;;;;6.38;5.63;;;26.40;1.00;;;;;;5112326;28;20028;-56
2022/07/08 00:15:48;;;;;;;7.40;4.88;;;26.30;1.00;;;;;;5113872;28;20432;-56
2022/07/08 00:18:13;;;;;;;5.65;5.07;;;26.30;1.00;;;;;;5114807;28;20026;-57
2022/07/08 00:20:39;;;;;;;5.15;3.95;;;26.30;1.00;;;;;;5114902;28;20038;-58
2022/07/08 00:23:05;;;;;;;9.88;7.03;;;26.10;1.00;;;;;;5112009;28;20020;-58
2022/07/08 00:25:31;;;;;;;6.45;4.30;;;26.10;1.00;;;;;;5112351;27;20105;-58
2022/07/08 00:27:56;;;;;;;14.10;10.25;;;26.20;1.00;;;;;;5096236;28;20063;-58
2022/07/08 00:30:22;;;;;;;11.50;7.00;;;26.20;1.00;;;;;;5109303;28;20511;-57
2022/07/08 00:32:48;;;;;;;9.18;7.75;;;26.20;1.00;;;;;;5114569;27;20027;-58
2022/07/08 00:35:13;;;;;;;13.88;9.68;;;26.30;1.00;;;;;;5114884;28;20442;-57
2022/07/08 00:37:39;;;;;;;7.18;4.45;;;26.30;1.00;;;;;;5114400;27;20039;-58
2022/07/08 00:40:05;;;;;;;8.68;6.20;;;26.30;1.00;;;;;;5114016;28;20118;-57
2022/07/08 00:42:31;;;;;;;7.13;5.30;;;26.20;1.00;;;;;;5113816;27;20023;-58
2022/07/08 00:44:56;;;;;;;9.65;4.20;;;26.10;1.00;;;;;;5114118;27;20020;-58
2022/07/08 00:47:22;;;;;;;7.13;3.97;;;26.10;1.00;;;;;;5111335;28;20515;-58
2022/07/08 00:49:50;;;;;;;7.50;5.70;;;26.10;1.00;;;;;;5114088;28;20535;-58
2022/07/08 00:52:16;;;;;;;5.72;3.63;;;26.10;1.00;;;;;;5095108;28;20481;-57
2022/07/08 00:54:42;;;;;;;6.25;3.50;;;26.20;1.00;;;;;;5095812;28;20031;-55
2022/07/08 00:57:08;;;;;;;4.35;3.53;;;26.20;1.00;;;;;;5112850;28;20036;-58
2022/07/08 00:59:33;;;;;;;6.78;2.75;;;26.10;1.00;;;;;;5114357;28;20020;-57
2022/07/08 01:01:59;;;;;;;4.35;3.50;;;26.10;1.00;;;;;;5113834;28;20428;-58
2022/07/08 01:04:25;;;;;;;6.13;3.33;;;26.20;1.00;;;;;;5108391;28;20024;-54
2022/07/08 01:06:50;;;;;;;8.07;2.72;;;26.10;1.00;;;;;;5111509;28;20030;-56
2022/07/08 01:09:16;;;;;;;7.85;2.90;;;26.00;1.00;;;;;;5129590;27;20084;-58
2022/07/08 01:11:46;;;;;;;3.92;2.53;;;26.00;1.00;;;;;;5112789;28;20027;-56
2022/07/08 01:14:12;;;;;;;4.75;2.47;;;26.10;1.00;;;;;;5113713;28;20546;-58
2022/07/08 01:16:38;;;;;;;4.13;2.58;;;26.00;1.00;;;;;;5109914;27;20051;-56
2022/07/08 01:19:04;;;;;;;4.80;2.63;;;26.00;1.00;;;;;;5104909;27;20031;-58
2022/07/08 01:21:29;;;;;;;4.97;2.55;;;25.90;1.00;;;;;;5090610;28;20031;-57
2022/07/08 01:23:55;;;;;;;7.93;3.03;;;25.90;1.00;;;;;;5102844;27;20058;-57
2022/07/08 01:26:21;;;;;;;4.28;2.78;;;25.80;1.00;;;;;;5084763;27;20035;-57
2022/07/08 01:28:47;;;;;;;5.68;2.53;;;25.80;1.00;;;;;;5103445;27;20019;-57
2022/07/08 01:31:12;;;;;;;5.35;2.53;;;25.80;1.00;;;;;;5110758;27;20498;-56
2022/07/08 01:33:38;;;;;;;6.72;2.35;;;25.90;1.00;;;;;;5105606;27;20076;-57
2022/07/08 01:36:04;;;;;;;3.40;2.53;;;25.80;1.00;;;;;;5102811;27;20031;-57
2022/07/08 01:38:30;;;;;;;6.40;2.80;;;25.80;1.00;;;;;;5099731;27;20114;-56
2022/07/08 01:40:57;;;;;;;2.70;2.50;;;25.80;1.00;;;;;;5103317;27;20109;-55
2022/07/08 01:43:22;;;;;;;4.38;2.35;;;25.70;1.00;;;;;;5105403;27;20031;-57
2022/07/08 01:45:48;;;;;;;5.75;2.55;;;25.70;1.00;;;;;;5110476;28;20020;-57
2022/07/08 01:48:14;;;;;;;3.13;2.33;;;25.50;1.00;;;;;;5103632;27;20030;-56
2022/07/08 01:50:39;;;;;;;6.18;2.83;;;25.70;1.00;;;;;;5098944;27;20028;-58
2022/07/08 01:53:05;;;;;;;7.78;2.17;;;25.60;1.00;;;;;;5097039;27;21370;-57
2022/07/08 01:55:30;;;;;;;5.05;2.30;;;25.60;1.00;;;;;;5101006;27;20092;-58
2022/07/08 01:57:56;;;;;;;5.05;2.75;;;25.70;1.00;;;;;;5102094;27;20389;-57
2022/07/08 02:00:22;;;;;;;4.57;2.50;;;25.50;1.00;;;;;;5075883;27;20224;-54
2022/07/08 02:02:47;;;;;;;5.65;2.33;;;25.60;1.00;;;;;;5106622;27;20036;-56
2022/07/08 02:05:14;;;;;;;4.80;2.47;;;25.70;1.00;;;;;;5109241;27;20031;-55
2022/07/08 02:07:40;;;;;;;5.85;2.45;;;25.70;1.00;;;;;;5100776;27;20035;-56
2022/07/08 02:10:07;;;;;;;3.65;2.15;;;25.70;1.00;;;;;;5101943;27;20322;-58
2022/07/08 02:12:36;;;;;;;3.72;2.30;;;25.70;1.00;;;;;;5105331;27;20039;-57
2022/07/08 02:15:04;;;;;;;2.78;2.30;;;25.60;1.00;;;;;;5085473;27;20190;-57
2022/07/08 02:17:42;;;;;;;2.80;2.20;;;25.60;1.00;;;;;;5100254;27;20035;-57
2022/07/08 02:20:10;;;;;;;8.27;2.45;;;25.60;1.00;;;;;;5101187;27;20030;-57
2022/07/08 02:22:37;;;;;;;3.33;2.50;;;25.60;1.00;;;;;;5111459;28;20035;-57
2022/07/08 02:25:03;;;;;;;3.35;2.58;;;25.60;1.00;;;;;;5109609;27;20065;-57
2022/07/08 02:27:28;;;;;;;4.95;2.28;;;25.60;1.00;;;;;;5098497;27;20062;-58
2022/07/08 02:29:54;;;;;;;7.80;2.50;;;25.60;1.00;;;;;;5101960;27;20110;-58
2022/07/08 02:32:19;;;;;;;3.90;1.90;;;25.50;1.00;;;;;;5111198;28;20028;-58
2022/07/08 02:34:45;;;;;;;3.75;2.22;;;25.40;1.00;;;;;;5108154;28;20026;-57
2022/07/08 02:37:11;;;;;;;5.95;2.40;;;25.30;1.00;;;;;;5106692;27;20066;-56
2022/07/08 02:39:36;;;;;;;4.88;2.53;;;25.40;1.00;;;;;;5100963;27;20104;-58
2022/07/08 02:42:03;;;;;;;4.03;1.98;;;25.50;1.00;;;;;;5108553;28;20062;-57
2022/07/08 02:44:28;;;;;;;4.80;2.28;;;25.40;1.00;;;;;;5103558;28;20038;-58
2022/07/08 02:46:54;;;;;;;4.55;1.83;;;25.40;1.00;;;;;;5106002;28;20028;-57
2022/07/08 02:49:19;;;;;;;3.22;2.28;;;25.40;1.00;;;;;;5102034;28;20269;-58
2022/07/08 02:51:45;;;;;;;3.35;2.05;;;25.40;1.00;;;;;;5095926;28;20077;-58
2022/07/08 02:54:10;;;;;;;4.18;2.33;;;25.40;1.00;;;;;;5097528;28;21013;-57
2022/07/08 02:56:36;;;;;;;2.80;2.00;;;25.40;1.00;;;;;;5099371;28;20111;-56
2022/07/08 02:59:03;;;;;;;5.90;2.22;;;25.40;1.00;;;;;;5097934;28;20031;-57
2022/07/08 03:01:29;;;;;;;3.50;2.08;;;25.40;1.00;;;;;;5107496;28;20030;-56
2022/07/08 03:03:55;;;;;;;4.40;2.00;;;25.40;1.00;;;;;;5103996;28;20876;-58
2022/07/08 03:06:21;;;;;;;3.83;1.80;;;25.40;1.00;;;;;;5104866;28;20084;-57
2022/07/08 03:08:46;;;;;;;4.63;2.00;;;25.40;1.00;;;;;;5104043;28;20039;-57
2022/07/08 03:11:12;;;;;;;4.30;1.70;;;25.40;1.00;;;;;;5098941;28;20031;-57
2022/07/08 03:13:38;;;;;;;4.10;2.03;;;25.40;1.00;;;;;;5085016;28;20031;-58
2022/07/08 03:16:05;;;;;;;5.55;2.22;;;25.40;1.00;;;;;;5101097;28;20044;-55
2022/07/08 03:18:37;;;;;;;6.88;2.70;;;25.40;1.00;;;;;;5103044;28;20448;-58
2022/07/08 03:21:03;;;;;;;2.35;1.98;;;25.30;1.00;;;;;;5112331;28;20027;-58
2022/07/08 03:23:32;;;;;;;4.90;1.90;;;25.30;1.00;;;;;;5105044;27;20020;-57
2022/07/08 03:25:58;;;;;;;2.15;1.50;;;25.40;1.00;;;;;;5109037;27;20028;-58
2022/07/08 03:28:23;;;;;;;2.97;1.90;;;25.30;1.00;;;;;;5111236;27;20406;-58
2022/07/08 03:30:49;;;;;;;4.28;1.58;;;25.30;1.00;;;;;;5105971;27;20031;-56
2022/07/08 03:33:15;;;;;;;4.78;2.25;;;25.30;1.00;;;;;;5103670;27;20027;-58
2022/07/08 03:35:40;;;;;;;6.50;1.95;;;25.10;1.00;;;;;;5108791;27;20027;-53
2022/07/08 03:38:06;;;;;;;4.28;1.98;;;25.30;1.00;;;;;;5103852;27;20031;-59
2022/07/08 03:43:16;;;;;;;4.10;1.75;;;25.30;1.00;;;;;;5108730;27;20137;-57
2022/07/08 03:45:41;;;;;;;3.67;1.90;;;25.30;1.00;;;;;;5105449;27;20106;-59
2022/07/08 03:48:07;;;;;;;5.30;2.00;;;25.30;1.00;;;;;;5102924;27;20741;-56
2022/07/08 03:50:33;;;;;;;3.92;2.10;;;25.20;1.00;;;;;;5099609;27;20039;-58
2022/07/08 03:52:58;;;;;;;4.05;2.13;;;25.20;1.00;;;;;;5103030;27;20544;-58
2022/07/08 03:55:25;;;;;;;5.32;1.88;;;25.20;1.00;;;;;;5107679;27;20152;-58
2022/07/08 03:57:51;;;;;;;7.80;1.90;;;25.20;1.00;;;;;;5110932;27;20503;-58
2022/07/08 04:00:17;;;;;;;4.60;1.65;;;25.20;1.00;;;;;;5108826;27;20023;-57
2022/07/08 04:02:42;;;;;;;4.65;1.77;;;25.20;1.00;;;;;;5104613;27;20027;-59
2022/07/08 04:05:08;;;;;;;6.30;1.80;;;25.30;1.00;;;;;;5105630;27;20402;-58
2022/07/08 04:07:34;;;;;;;5.68;1.95;;;25.30;1.00;;;;;;5082942;28;20027;-55
2022/07/08 04:10:00;;;;;;;4.88;2.40;;;25.20;1.00;;;;;;5107636;27;20111;-56
2022/07/08 04:12:25;;;;;;;5.43;1.63;;;25.20;1.00;;;;;;5105084;27;20425;-56
2022/07/08 04:14:51;;;;;;;7.05;1.80;;;25.30;1.00;;;;;;5104769;27;20455;-58
2022/07/08 04:17:17;;;;;;;5.72;2.05;;;25.20;1.00;;;;;;5103969;27;20453;-56
2022/07/08 04:19:42;;;;;;;3.35;1.60;;;25.20;1.00;;;;;;5081362;28;20115;-57
2022/07/08 04:22:08;;;;;;;4.80;1.88;;;25.20;1.00;;;;;;5102614;27;20070;-57
2022/07/08 04:24:33;;;;;;;4.70;1.77;;;25.20;1.00;;;;;;5107371;27;20047;-57
2022/07/08 04:26:59;;;;;;;6.68;2.22;;;25.20;1.00;;;;;;5111718;27;20762;-59
2022/07/08 04:29:25;;;;;;;5.00;1.50;;;25.20;1.00;;;;;;5100914;27;20629;-57
2022/07/08 04:31:51;;;;;;;4.97;2.10;;;25.20;1.00;;;;;;5087560;28;20045;-57
2022/07/08 04:34:16;;;;;;;5.65;2.00;;;25.30;1.00;;;;;;5109868;27;20061;-57
2022/07/08 04:36:42;;;;;;;3.05;1.83;;;25.30;1.00;;;;;;5088192;27;20047;-57
2022/07/08 04:39:07;;;;;;;4.05;2.05;;;25.20;1.00;;;;;;5098254;27;20070;-56
2022/07/08 04:41:33;;;;;;;4.45;2.00;;;25.20;1.00;;;;;;5109181;27;21391;-57
2022/07/08 04:43:59;;;;;;;4.55;2.10;;;25.20;1.00;;;;;;5109021;27;20031;-57
2022/07/08 04:46:24;;;;;;;5.38;1.92;;;25.20;1.00;;;;;;5104267;27;20035;-58
2022/07/08 04:48:51;;;;;;;5.75;2.00;;;25.30;1.00;;;;;;5105161;27;20115;-58
2022/07/08 04:51:17;;;;;;;4.70;1.50;;;25.20;1.00;;;;;;5100613;27;20277;-57
2022/07/08 04:53:42;;;;;;;5.13;1.80;;;25.30;1.00;;;;;;5103531;27;20560;-58
2022/07/08 04:56:08;;;;;;;4.80;1.85;;;25.30;1.00;;;;;;5101463;27;20042;-57
2022/07/08 04:58:34;;;;;;;6.07;2.17;;;25.30;1.00;;;;;;5101067;27;20263;-58
2022/07/08 05:00:59;;;;;;;2.63;1.80;;;25.30;1.00;;;;;;5103036;27;20020;-57
2022/07/08 05:03:25;;;;;;;6.68;1.88;;;25.20;1.00;;;;;;5101814;27;20387;-59
2022/07/08 05:05:51;;;;;;;4.57;1.70;;;25.30;1.00;;;;;;5100959;27;20460;-58
2022/07/08 05:08:16;;;;;;;4.78;2.10;;;25.30;1.00;;;;;;5106244;27;20035;-58
2022/07/08 05:10:42;;;;;;;3.47;1.88;;;25.30;1.00;;;;;;5102990;27;20107;-57
2022/07/08 05:13:08;;;;;;;4.75;1.63;;;25.30;1.00;;;;;;5105579;27;20035;-57
2022/07/08 05:15:34;;;;;;;3.88;2.00;;;25.20;1.00;;;;;;5106427;27;20032;-56
2022/07/08 05:17:59;;;;;;;6.32;2.17;;;25.20;1.00;;;;;;5110561;28;20370;-56
2022/07/08 05:20:25;;;;;;;5.53;2.13;;;25.30;1.00;;;;;;5111362;27;20030;-56
2022/07/08 05:22:51;;;;;;;5.75;2.17;;;25.30;1.00;;;;;;5101702;27;20033;-56
2022/07/08 05:25:17;;;;;;;6.75;1.85;;;25.30;1.00;;;;;;5100466;27;20096;-58
2022/07/08 05:27:42;;;;;;;4.65;2.00;;;25.30;1.00;;;;;;5101592;27;20031;-56
2022/07/08 05:30:10;;;;;;;4.05;1.92;;;25.30;1.00;;;;;;5104103;27;20033;-60
2022/07/08 05:32:37;;;;;;;5.03;2.30;;;25.30;1.00;;;;;;5084846;28;20500;-56
2022/07/08 05:35:04;;;;;;;5.57;2.05;;;25.30;1.00;;;;;;5102142;27;20749;-57
2022/07/08 05:37:30;;;;;;;3.55;1.83;;;25.40;1.00;;;;;;5113090;28;20544;-59
2022/07/08 05:39:57;;;;;;;4.18;1.70;;;25.30;1.00;;;;;;5112427;28;20024;-58
2022/07/08 05:42:23;;;;;;;4.75;1.98;;;25.30;1.00;;;;;;5108229;27;20989;-59
2022/07/08 05:44:48;;;;;;;3.67;1.83;;;25.30;1.00;;;;;;5089773;28;20024;-59
2022/07/08 05:47:14;;;;;;;5.78;2.05;;;25.30;1.00;;;;;;5110553;27;20031;-59
2022/07/08 05:49:43;;;;;;;6.55;2.67;;;25.40;1.00;;;;;;5104751;27;20158;-58
2022/07/08 05:52:10;;;;;;;4.18;2.00;;;25.40;1.00;;;;;;5098133;27;20032;-58
2022/07/08 05:54:37;;;;;;;3.75;2.00;;;25.40;1.00;;;;;;5101898;27;20024;-58
2022/07/08 05:57:03;;;;;;;6.10;2.17;;;25.40;1.00;;;;;;5110713;28;20043;-57
2022/07/08 05:59:29;;;;;;;5.85;2.03;;;25.40;1.00;;;;;;5111994;28;20080;-58
2022/07/08 06:01:55;;;;;;;8.60;1.95;;;25.40;1.00;;;;;;5112753;28;20160;-58
2022/07/08 06:04:21;;;;;;;6.25;1.83;;;25.50;1.00;;;;;;5111959;28;20024;-58
2022/07/08 06:06:47;;;;;;;7.15;2.00;;;25.40;1.00;;;;;;5113150;28;20027;-57
2022/07/08 06:09:12;;;;;;;4.93;2.28;;;25.40;1.00;;;;;;5111451;28;20084;-57
2022/07/08 06:11:38;;;;;;;6.57;2.00;;;25.40;1.00;;;;;;5094066;28;20102;-59
2022/07/08 06:14:04;;;;;;;3.78;1.83;;;25.30;1.00;;;;;;5111441;28;20469;-58
2022/07/08 06:16:30;;;;;;;7.93;2.20;;;25.40;1.00;;;;;;5111189;28;20031;-57
2022/07/08 06:18:55;;;;;;;4.20;1.92;;;25.40;1.00;;;;;;5111929;28;20023;-58
2022/07/08 06:21:21;;;;;;;3.65;1.83;;;25.50;1.00;;;;;;5111868;28;20089;-59
2022/07/08 06:23:46;;;;;;;3.40;1.85;;;25.50;1.00;;;;;;5111235;28;20043;-59
2022/07/08 06:26:12;;;;;;;5.60;2.00;;;25.60;1.00;;;;;;5110946;28;20047;-59
2022/07/08 06:28:38;;;;;;;5.63;1.95;;;25.50;1.00;;;;;;5110781;28;20027;-58
2022/07/08 06:31:03;;;;;;;9.63;1.90;;;25.40;1.00;;;;;;5091829;28;20034;-59
2022/07/08 06:33:29;;;;;;;5.10;2.00;;;25.30;1.00;;;;;;5110487;28;20027;-57
2022/07/08 06:35:55;;;;;;;5.20;2.15;;;25.40;1.00;;;;;;5109320;28;20032;-57
2022/07/08 06:38:20;;;;;;;4.57;1.88;;;25.50;1.00;;;;;;5108460;28;20028;-57
2022/07/08 06:40:46;;;;;;;6.13;1.60;;;25.40;1.00;;;;;;5111079;28;20104;-58
2022/07/08 06:43:12;;;;;;;4.45;1.73;;;25.50;1.00;;;;;;5110026;28;20022;-58
2022/07/08 06:45:38;;;;;;;4.43;1.75;;;25.60;1.00;;;;;;5109330;28;20090;-58
2022/07/08 06:48:04;;;;;;;4.63;2.10;;;25.60;1.00;;;;;;5091419;28;20032;-57
2022/07/08 06:50:30;;;;;;;8.50;1.80;;;25.50;1.00;;;;;;5110343;28;20020;-59
2022/07/08 06:52:56;;;;;;;4.40;1.58;;;25.60;1.00;;;;;;5110634;28;20038;-59
2022/07/08 06:55:22;;;;;;;3.80;2.00;;;25.60;1.00;;;;;;5109795;28;20023;-58
2022/07/08 06:57:48;;;;;;;6.13;2.60;;;25.70;1.00;;;;;;5112383;27;20451;-59
2022/07/08 07:00:14;;;;;;;5.88;2.10;;;25.70;1.00;;;;;;5111908;27;20142;-61
2022/07/08 07:02:40;;;;;;;5.97;1.73;;;25.80;1.00;;;;;;5114690;27;20020;-60
2022/07/08 07:05:06;;;;;;;5.07;1.95;;;25.90;1.00;;;;;;5112451;27;20117;-61
2022/07/08 07:07:32;;;;;;;4.80;1.88;;;26.00;1.00;;;;;;5113467;27;20046;-60
2022/07/08 07:09:58;;;;;;;5.05;1.88;;;26.10;1.00;;;;;;5094886;28;20023;-60
2022/07/08 07:12:23;;;;;;;4.80;2.10;;;26.10;1.00;;;;;;5111542;27;20042;-61
2022/07/08 07:14:49;;;;;;;5.63;1.90;;;26.30;1.00;;;;;;5112673;27;20019;-60
2022/07/08 07:17:20;;;;;;;4.75;2.13;;;26.30;1.00;;;;;;5113519;28;20044;-59
2022/07/08 07:19:46;;;;;;;4.75;2.17;;;26.30;1.00;;;;;;5110478;27;20019;-59
2022/07/08 07:22:12;;;;;;;4.70;2.13;;;26.30;1.00;;;;;;5111878;27;20031;-59
2022/07/08 07:24:38;;;;;;;3.65;1.98;;;26.30;1.00;;;;;;5111805;27;20138;-60
2022/07/08 07:27:05;;;;;;;6.32;2.42;;;26.20;1.00;;;;;;5114177;27;20122;-59
2022/07/08 07:29:30;;;;;;;2.58;1.63;;;26.40;1.00;;;;;;5112138;28;20028;-59
2022/07/08 07:31:56;;;;;;;6.70;3.72;;;26.40;1.00;;;;;;5099134;28;20080;-59
2022/07/08 07:34:22;;;;;;;6.18;2.38;;;26.50;1.00;;;;;;5093119;28;20055;-60
2022/07/08 07:36:47;;;;;;;8.88;2.63;;;26.40;1.00;;;;;;5111484;27;20040;-60
2022/07/08 07:39:13;;;;;;;6.03;2.30;;;26.50;1.00;;;;;;5111606;27;20035;-60
2022/07/08 07:41:39;;;;;;;5.35;2.40;;;26.50;1.00;;;;;;5112387;28;20064;-59
2022/07/08 07:44:05;;;;;;;3.60;2.08;;;26.50;1.00;;;;;;5113060;28;20059;-59
2022/07/08 07:46:31;;;;;;;7.40;2.65;;;26.60;1.00;;;;;;5110991;27;20127;-59
2022/07/08 07:48:57;;;;;;;5.57;2.42;;;26.60;1.00;;;;;;5113753;27;20027;-60
2022/07/08 07:51:23;;;;;;;6.10;2.45;;;26.60;1.00;;;;;;5112413;28;20023;-60
2022/07/08 07:53:48;;;;;;;5.32;2.70;;;26.40;1.00;;;;;;5111927;27;20052;-59
2022/07/08 07:56:14;;;;;;;5.22;2.88;;;26.40;1.00;;;;;;5112092;27;20392;-59
2022/07/08 07:58:40;;;;;;;5.65;2.40;;;26.50;1.00;;;;;;5105894;27;20058;-60
2022/07/08 08:01:06;;;;;;;7.32;2.20;;;26.50;1.00;;;;;;5094296;28;20028;-59
2022/07/08 08:03:32;;;;;;;6.20;2.22;;;26.70;1.00;;;;;;5114317;28;20023;-60
2022/07/08 08:05:58;;;;;;;5.38;2.72;;;26.60;1.00;;;;;;5093039;28;20031;-60
2022/07/08 08:08:24;;;;;;;3.28;2.63;;;26.90;1.00;;;;;;5113182;28;20400;-60
2022/07/08 08:10:51;;;;;;;5.07;2.70;;;26.90;1.00;;;;;;5114168;28;20024;-59
2022/07/08 08:13:18;;;;;;;8.15;2.78;;;26.90;1.00;;;;;;5109029;27;20028;-59
2022/07/08 08:15:44;;;;;;;6.60;2.58;;;27.00;1.00;;;;;;5090319;28;20456;-60
2022/07/08 08:18:09;;;;;;;8.55;2.70;;;26.70;1.00;;;;;;5105756;27;20043;-60
2022/07/08 08:20:35;;;;;;;5.10;2.65;;;26.90;1.00;;;;;;5090840;28;20468;-59
2022/07/08 08:23:01;;;;;;;5.75;2.78;;;27.00;1.00;;;;;;5111945;27;20074;-59
2022/07/08 08:25:27;;;;;;;8.02;2.72;;;27.20;1.00;;;;;;5106999;27;20063;-59
2022/07/08 08:27:54;;;;;;;5.65;3.67;;;27.00;1.00;;;;;;5114544;28;20034;-60
2022/07/08 08:30:20;;;;;;;7.50;3.45;;;27.10;1.00;;;;;;5113156;27;20061;-60
2022/07/08 08:32:46;;;;;;;8.32;3.15;;;27.00;1.00;;;;;;5094064;28;20027;-60
2022/07/08 08:35:12;;;;;;;6.55;2.20;;;27.10;1.00;;;;;;5112907;28;20027;-60
2022/07/08 08:37:38;;;;;;;5.82;2.67;;;27.20;1.00;;;;;;5112092;27;20111;-60
2022/07/08 08:40:09;;;;;;;5.65;2.45;;;27.30;1.00;;;;;;5113205;28;20037;-60
2022/07/08 08:42:36;;;;;;;3.35;2.40;;;27.40;1.00;;;;;;5111602;27;20062;-59
2022/07/08 08:45:03;;;;;;;5.07;2.72;;;27.40;1.00;;;;;;5111537;28;20084;-61
2022/07/08 08:47:32;;;;;;;9.50;3.38;;;27.50;1.00;;;;;;5111636;28;20024;-60
2022/07/08 08:52:54;;;;;;;8.55;3.00;;;27.50;1.00;;;;;;5093568;27;20031;-59
2022/07/08 08:55:33;;;;;;;3.47;2.20;;;27.60;1.00;;;;;;5111104;27;20525;-58
2022/07/08 08:58:01;;;;;;;6.65;2.67;;;27.50;1.00;;;;;;5105165;28;20055;-59
2022/07/08 09:00:28;;;;;;;7.70;2.78;;;27.50;1.00;;;;;;5109856;27;20120;-59
2022/07/08 09:02:54;;;;;;;4.53;2.03;;;27.60;1.00;;;;;;5111104;27;20031;-59
2022/07/08 09:05:21;;;;;;;3.70;2.15;;;27.70;1.00;;;;;;5112064;28;20080;-60
2022/07/08 09:07:47;;;;;;;6.93;2.92;;;27.80;1.00;;;;;;5109761;27;20027;-60
2022/07/08 09:10:17;;;;;;;5.32;2.85;;;27.90;1.00;;;;;;5111805;27;20024;-60
2022/07/08 09:13:01;;;;;;;5.32;2.60;;;28.00;1.00;;;;;;5113479;28;20031;-59
2022/07/08 09:15:42;;;;;;;6.55;3.40;;;27.90;1.00;;;;;;5111167;28;20480;-60
2022/07/08 09:18:14;;;;;;;8.32;3.47;;;27.90;1.00;;;;;;5089400;28;20110;-59
2022/07/08 09:20:49;;;;;;;5.50;2.90;;;28.00;1.00;;;;;;5108263;27;20019;-60
2022/07/08 09:23:22;;;;;;;4.97;2.97;;;28.20;1.00;;;;;;5106977;27;20110;-60
2022/07/08 09:25:50;;;;;;;10.43;2.90;;;28.10;1.00;;;;;;5110032;27;20032;-60
2022/07/08 09:28:26;;;;;;;7.13;2.60;;;28.10;1.00;;;;;;5090171;28;20046;-61
2022/07/08 09:30:54;;;;;;;4.85;2.30;;;28.00;1.00;;;;;;5108139;27;20538;-60
2022/07/08 09:33:20;;;;;;;7.35;3.03;;;28.20;1.00;;;;;;5112395;27;20023;-60
2022/07/08 09:35:50;;;;;;;3.78;2.15;;;28.20;1.00;;;;;;5092349;28;20050;-60
2022/07/08 09:38:18;;;;;;;3.63;2.38;;;28.40;1.00;;;;;;5112734;28;20020;-60
2022/07/08 09:40:54;;;;;;;4.40;2.60;;;28.50;1.00;;;;;;5089133;27;20008;-60
2022/07/08 09:43:21;;;;;;;3.65;2.25;;;28.50;1.00;;;;;;5110465;27;20039;-60
2022/07/08 09:45:47;;;;;;;5.63;2.20;;;28.50;1.00;;;;;;5091840;28;20314;-60
2022/07/08 09:48:13;;;;;;;6.65;2.72;;;28.60;1.00;;;;;;5111961;27;20096;-49
2022/07/08 09:50:43;;;;;;;9.57;3.05;;;28.70;1.00;;;;;;5111260;27;20031;-60
2022/07/08 09:53:16;;;;;;;3.92;2.90;;;28.70;1.00;;;;;;5111203;28;20031;-61
2022/07/08 09:55:43;;;;;;;5.88;2.40;;;28.70;1.00;;;;;;5109420;27;20421;-59
2022/07/08 09:58:12;;;;;;;6.57;2.85;;;28.90;1.00;;;;;;5111374;28;20051;-60
2022/07/08 10:00:39;;;;;;;4.35;2.72;;;28.90;1.00;;;;;;5110710;27;20016;-59
2022/07/08 10:03:05;;;;;;;6.10;2.75;;;28.90;1.00;;;;;;5111614;28;20081;-60
2022/07/08 10:05:31;;;;;;;5.68;2.63;;;29.00;1.00;;;;;;5108284;27;20020;-60
2022/07/08 10:07:57;;;;;;;5.38;2.60;;;29.00;1.00;;;;;;5108821;27;20028;-60
2022/07/08 10:10:24;;;;;;;6.78;2.50;;;29.10;1.00;;;;;;5105669;28;20529;-61
2022/07/08 10:12:52;;;;;;;5.85;2.58;;;29.10;1.00;;;;;;5107767;27;20051;-59
2022/07/08 10:15:19;;;;;;;6.05;2.30;;;29.50;1.00;;;;;;5109746;28;20027;-60
2022/07/08 10:17:48;;;;;;;6.20;2.92;;;29.60;1.00;;;;;;5111216;28;20036;-60
2022/07/08 10:20:16;;;;;;;6.05;3.13;;;29.90;1.00;;;;;;5109125;27;20032;-59
2022/07/08 10:22:44;;;;;;;7.40;2.63;;;30.30;1.00;;;;;;5108303;28;20129;-61
2022/07/08 10:25:10;;;;;;;5.47;2.88;;;30.30;1.00;;;;;;5108717;28;20031;-60
2022/07/08 10:27:36;;;;;;;4.68;2.10;;;30.50;1.00;;;;;;5110424;28;20346;-61
2022/07/08 10:30:18;;;;;;;5.35;2.47;;;31.10;1.00;;;;;;5109576;28;20064;-60
2022/07/08 10:32:48;;;;;;;4.78;2.60;;;31.10;1.00;;;;;;5111247;28;20096;-60
2022/07/08 10:35:19;;;;;;;4.85;2.50;;;31.00;1.00;;;;;;5111607;27;20110;-60
2022/07/08 10:37:49;;;;;;;3.60;2.03;;;30.80;1.00;;;;;;5112362;28;20035;-60
2022/07/08 10:40:47;;;;;;;2.92;2.30;;;31.90;1.00;;;;;;5104775;28;20465;-61
2022/07/08 10:43:19;;;;;;;4.93;3.03;;;31.70;1.00;;;;;;5108660;28;20023;-59
2022/07/08 10:46:04;;;;;;;3.60;2.53;;;31.80;1.00;;;;;;5106165;28;20057;-59
2022/07/08 10:48:43;;;;;;;4.22;2.35;;;32.30;1.00;;;;;;5100303;28;20043;-60
2022/07/08 10:51:29;;;;;;;4.63;3.00;;;32.40;1.00;;;;;;5111205;28;20046;-59
2022/07/08 10:54:00;;;;;;;4.75;2.80;;;32.10;1.00;;;;;;5111882;28;20362;-59
2022/07/08 10:56:48;;;;;;;4.63;2.85;;;31.80;1.00;;;;;;5111438;28;20344;-59
2022/07/08 10:59:26;;;;;;;3.75;2.72;;;31.60;1.00;;;;;;5111176;28;20030;-58
2022/07/08 11:02:09;;;;;;;6.07;3.15;;;31.40;1.00;;;;;;5109947;28;20507;-59
2022/07/08 11:04:34;;;;;;;7.27;3.33;;;31.70;1.00;;;;;;5110998;28;20084;-59
2022/07/08 11:07:26;;;;;;;6.95;3.10;;;31.70;1.00;;;;;;5111439;28;20103;-59
2022/07/08 11:10:11;;;;;;;6.13;2.70;;;32.10;1.00;;;;;;5104145;28;20048;-59
2022/07/08 11:12:46;;;;;;;4.65;2.38;;;32.10;1.00;;;;;;5112048;28;20096;-59
2022/07/08 11:15:18;;;;;;;5.45;2.97;;;31.60;1.00;;;;;;5111441;28;20038;-60
2022/07/08 11:17:49;;;;;;;3.80;3.13;;;32.20;1.00;;;;;;5111630;28;20461;-60
2022/07/08 11:20:18;;;;;;;5.70;3.08;;;29.80;1.00;;;;;;5111263;28;20099;-60
2022/07/08 11:22:44;;;;;;;4.90;2.90;;;32.60;1.00;;;;;;5111775;28;20042;-59
2022/07/08 11:25:12;;;;;;;5.47;2.90;;;33.20;1.00;;;;;;5107072;28;20036;-60
2022/07/08 11:27:38;;;;;;;4.20;2.60;;;33.00;1.00;;;;;;5093367;28;20161;-60
2022/07/08 11:30:10;;;;;;;5.78;2.63;;;35.10;1.00;;;;;;5110830;28;20066;-59
2022/07/08 11:32:36;;;;;;;5.43;2.80;;;37.70;1.00;;;;;;5111735;28;20099;-59
2022/07/08 11:35:02;;;;;;;3.08;2.55;;;38.20;1.00;;;;;;5110347;28;20031;-59
2022/07/08 11:37:32;;;;;;;5.68;2.60;;;38.70;1.00;;;;;;5111554;28;20034;-60
2022/07/08 11:39:58;;;;;;;6.63;3.10;;;37.90;1.00;;;;;;5106717;28;20074;-60
2022/07/08 11:42:24;;;;;;;3.90;3.17;;;37.40;1.00;;;;;;5114204;28;20028;-60
2022/07/08 11:44:51;;;;;;;4.40;3.10;;;36.90;1.00;;;;;;5096585;28;20043;-60
2022/07/08 11:47:18;;;;;;;3.42;3.00;;;36.40;1.00;;;;;;5112598;27;20028;-60
2022/07/08 11:49:44;;;;;;;5.03;3.25;;;37.10;1.00;;;;;;5093697;28;20095;-59
2022/07/08 11:52:10;;;;;;;4.82;3.05;;;38.50;1.00;;;;;;5113232;28;20023;-59
2022/07/08 11:54:37;;;;;;;5.78;3.47;;;39.40;1.00;;;;;;5111666;27;20095;-59
2022/07/08 11:57:04;;;;;;;3.50;3.20;;;41.00;1.00;;;;;;5112491;28;20063;-60
2022/07/08 11:59:32;;;;;;;3.50;3.13;;;39.60;1.00;;;;;;5112203;27;20020;-60
2022/07/08 12:01:59;;;;;;;5.65;3.08;;;40.30;1.00;;;;;;5109447;28;20035;-60
2022/07/08 12:04:25;;;;;;;7.15;3.10;;;38.40;1.00;;;;;;5109197;27;20020;-60
2022/07/08 12:06:57;;;;;;;4.28;3.58;;;37.90;1.00;;;;;;5108963;27;20050;-60
2022/07/08 12:09:24;;;;;;;3.92;3.15;;;36.80;1.00;;;;;;5105506;27;20060;-59
2022/07/08 12:11:55;;;;;;;3.72;2.97;;;35.50;1.00;;;;;;5111496;27;20473;-60
2022/07/08 12:14:21;;;;;;;3.25;2.95;;;34.70;1.00;;;;;;5113354;27;20080;-60
2022/07/08 12:16:55;;;;;;;4.00;2.75;;;33.90;1.00;;;;;;5113636;28;20042;-60
2022/07/08 12:19:28;;;;;;;;;;;33.50;1.00;;;;;;5111735;27;20126;-60
2022/07/08 12:21:55;;;;;;;2.90;2.50;;;33.50;1.00;;;;;;5112735;27;19981;-60
2022/07/08 12:24:31;;;;;;;2.88;2.67;;;33.60;1.00;;;;;;5106936;27;20040;-59
2022/07/08 12:27:01;;;;;;;3.05;2.55;;;33.10;1.00;;;;;;5108292;27;20050;-59
2022/07/08 12:29:31;;;;;;;5.20;3.40;;;33.30;1.00;;;;;;5107704;27;20034;-60
2022/07/08 12:31:56;;;;;;;5.55;3.08;;;33.20;1.00;;;;;;5110094;28;20065;-59
2022/07/08 12:34:24;;;;;;;6.93;3.03;;;33.10;1.00;;;;;;5112775;27;20435;-59
2022/07/08 12:36:50;;;;;;;4.72;3.15;;;33.20;1.00;;;;;;5114381;27;20059;-59
2022/07/08 12:39:21;;;;;;;6.78;2.47;;;33.10;1.00;;;;;;5112844;27;20104;-60
2022/07/08 12:42:05;;;;;;;4.93;2.50;;;33.20;1.00;;;;;;5113235;27;20155;-59
2022/07/08 12:44:41;;;;;;;5.70;2.72;;;33.40;1.00;;;;;;5107838;27;20043;-61
2022/07/08 12:47:08;;;;;;;2.92;2.72;;;33.80;1.00;;;;;;5109927;27;20135;-58
2022/07/08 12:49:35;;;;;;;4.18;3.10;;;34.00;1.00;;;;;;5112105;27;20521;-60
2022/07/08 12:52:02;;;;;;;4.65;3.03;;;34.10;1.00;;;;;;5110506;27;20453;-60
2022/07/08 12:54:28;;;;;;;4.30;2.50;;;33.60;1.00;;;;;;5107831;27;20095;-60
2022/07/08 12:56:56;;;;;;;5.28;2.90;;;33.80;1.00;;;;;;5111670;27;20047;-60
2022/07/08 12:59:25;;;;;;;3.08;2.45;;;33.70;1.00;;;;;;5109080;27;20476;-60
2022/07/08 13:01:52;;;;;;;2.95;2.25;;;33.40;1.00;;;;;;5110476;27;20128;-60
2022/07/08 13:04:18;;;;;;;2.97;2.60;;;34.20;1.00;;;;;;5113076;27;20023;-60